Pagina principale
METAR-TAF:

METAR-TAF

Aeroporti :

Agen, Francia

latitudine: 44-11N, longitudine: 000-36E, altezza: 61 m

Osservazione

Il bollettino è stato emesso 38 minuti fa, alle 01:00 UTC
Vento 4 kt da est/sud-est
Temperature 16°C
Umidità 82%
Pressione 1012 hPa
Visibilità 10 km o più
nessuna nube inferiore a 1500 m e nessun cumulonembo

METAR: LFBA 310100Z AUTO 12004KT CAVOK 16/13 Q1012

Ora: 03:38 (01:38 UTC)


TAF: mancante

Osservazioni e previsioni meteorologiche di più di 4000 aeroporti (messaggi METAR e TAF).

Le stazioni disponibili sono rappresentate dai dischi gialli e rossi sulla carta.

Puntare il mouse per vedere il nome della stazione.

Clicca sopra per visualizzare le osservazioni e previsioni meteorologiche.

Per cambiare la mappa : fare clic sui pulsanti verdi con una croce nera per ingrandire, il pulsante verde con un trattino per diminuire, o sulla freccia verde per le mappe adiacenti.


METAR-TAF: